Alkali Lake, Canada
Current Conditions -  °F | °C
As of 5:00 AM on Saturday 22 Nov 2014 (Local Time) from CYWL Reporting Station
Few Clouds Few Clouds  
Wind Chill: 26°   Ceiling: Unl
Heat Index: 34°   Visibility: 15mi
Dew Point: 23°   Wind: 9mph
Humidity: 65%   Direction: 240°WSW
Pressure: 29.32"   Gusts: 18mph
Location:  51.77°N, 122.3°W
Report Text: CYWL 221300Z 24008G16KT 15SM FEW015 01/M05 A2932 RMK SC1 SLP953
Loading
Personal Weather Stations






























Interactive Weather Map New forecast layout! Learn more

10-Day Weather Forecast

Advertisements
Track Severe Weather on mobile